Cabo Da Roca — CSZQ — position and weather

sailwx.info

Track history (hours):
 
Tides and Currents Weather Stations Pressure Air Temp Water Temp Dewpoint Dewpoint Depression Visibility Wind Speed Wind Dir Waves Ship Positions

Cabo Da Roca

Last reported at 2018-Feb-21 11:41 UTC. Time now 2018-Feb-23 12:41 UTC.
Position N 38°42' W 009°10'.

Length 28 m.

Type: Tug. MMSI: 263601790.

Date/timePositionNaut miles runAvg speedWind from/ knotsBaromVisibWave heightAir tempDewpointWater temp
2018-Feb-21 11:41N 38°42' W 009°10'2 5.4
2018-Feb-21 11:13N 38°41' W 009°12'0 0.9
2018-Feb-21 11:00N 38°41' W 009°12'5 6.0
2018-Feb-21 10:13N 38°43' W 009°07'0 1.4
2018-Feb-21 09:56N 38°43' W 009°07'2 0.1
2018-Feb-20 16:38N 38°42' W 009°10'0 0.7
2018-Feb-20 16:14N 38°42' W 009°10'0 1.6
2018-Feb-20 15:58N 38°42' W 009°10'1 0.5
2018-Feb-20 14:53N 38°42' W 009°10'0 0.0
2018-Feb-20 13:44N 38°42' W 009°10'0 0.0
2018-Feb-20 13:26N 38°42' W 009°10'0 0.0
2018-Feb-20 12:50N 38°42' W 009°10'3 1.3
2018-Feb-20 10:53N 38°41' W 009°13'3 1.4
2018-Feb-20 08:53N 38°42' W 009°10'3 3.2
2018-Feb-20 07:58N 38°41' W 009°13'  
Track history (hours):
 
Tides and Currents Weather Stations Pressure Air Temp Water Temp Dewpoint Dewpoint Depression Visibility Wind Speed Wind Dir Waves Ship Positions

Cabo Da Roca

Last reported at 2018-Feb-21 11:41 UTC. Time now 2018-Feb-23 12:41 UTC.
Position N 38°42' W 009°10'.

Length 28 m.

Type: Tug. MMSI: 263601790.

Date/timePositionNaut miles runAvg speedWind from/ knotsBaromVisibWave heightAir tempDewpointWater temp
2018-Feb-21 11:41N 38°42' W 009°10'2 5.4
2018-Feb-21 11:13N 38°41' W 009°12'0 0.9
2018-Feb-21 11:00N 38°41' W 009°12'5 6.0
2018-Feb-21 10:13N 38°43' W 009°07'0 1.4
2018-Feb-21 09:56N 38°43' W 009°07'2 0.1
2018-Feb-20 16:38N 38°42' W 009°10'0 0.7
2018-Feb-20 16:14N 38°42' W 009°10'0 1.6
2018-Feb-20 15:58N 38°42' W 009°10'1 0.5
2018-Feb-20 14:53N 38°42' W 009°10'0 0.0
2018-Feb-20 13:44N 38°42' W 009°10'0 0.0
2018-Feb-20 13:26N 38°42' W 009°10'0 0.0
2018-Feb-20 12:50N 38°42' W 009°10'3 1.3
2018-Feb-20 10:53N 38°41' W 009°13'3 1.4
2018-Feb-20 08:53N 38°42' W 009°10'3 3.2
2018-Feb-20 07:58N 38°41' W 009°13'  

Dump ship's entire track history